Time;durP1;ratioP1;P1;durP2;ratioP2;P2;SDS_P1;SDS_P2;PMS_P1;PMS_P2;Temp;Humidity;BMP_temperature;BMP_pressure;BME280_temperature;BME280_humidity;BME280_pressure;Samples;Min_cycle;Max_cycle;Signal;HPM_P1;HPM_P2
2024/02/10 00:00:35;;;;;;;21.73;12.70;;;;;;;2.12;100.00;98456.59;5118833;27;20200;-52
2024/02/10 00:03:03;;;;;;;19.37;12.40;;;;;;;2.18;100.00;98458.28;5122006;27;20230;-53
2024/02/10 00:05:31;;;;;;;20.27;12.87;;;;;;;2.22;100.00;98454.03;5121277;27;20200;-50
2024/02/10 00:08:02;;;;;;;22.27;13.50;;;;;;;2.23;100.00;98454.00;5113968;28;20238;-53
2024/02/10 00:10:30;;;;;;;18.90;11.90;;;;;;;2.20;100.00;98451.47;5121113;27;20253;-52
2024/02/10 00:12:59;;;;;;;23.10;13.27;;;;;;;2.19;100.00;98454.88;5113780;28;20200;-52
2024/02/10 00:15:28;;;;;;;19.83;13.20;;;;;;;2.14;100.00;98446.44;5113651;27;20196;-52
2024/02/10 00:17:57;;;;;;;21.73;13.37;;;;;;;2.14;100.00;98449.81;5110880;27;20303;-52
2024/02/10 00:20:26;;;;;;;18.57;11.80;;;;;;;2.15;100.00;98453.19;5111647;27;20199;-54
2024/02/10 00:22:54;;;;;;;22.93;14.23;;;;;;;2.15;100.00;98448.13;5113184;28;20195;-51
2024/02/10 00:25:23;;;;;;;22.97;14.03;;;;;;;2.15;100.00;98448.13;5113977;28;20650;-52
2024/02/10 00:27:53;;;;;;;22.50;14.03;;;;;;;2.15;100.00;98451.50;5115117;27;20224;-51
2024/02/10 00:30:23;;;;;;;25.27;14.70;;;;;;;2.16;100.00;98445.56;5118197;27;20196;-53
2024/02/10 00:32:56;;;;;;;21.27;13.50;;;;;;;2.17;100.00;98443.88;5127089;27;20713;-50
2024/02/10 00:35:25;;;;;;;26.50;14.40;;;;;;;2.21;100.00;98440.50;5120546;27;20226;-51
2024/02/10 00:37:53;;;;;;;24.83;15.40;;;;;;;2.21;100.00;98437.06;5114947;27;20257;-55
2024/02/10 00:40:21;;;;;;;22.50;14.40;;;;;;;2.24;100.00;98439.59;5109632;27;20203;-57
2024/02/10 00:42:51;;;;;;;25.13;14.70;;;;;;;2.23;100.00;98443.00;5112937;28;20215;-52
2024/02/10 00:45:19;;;;;;;25.63;14.70;;;;;;;2.25;100.00;98443.88;5121713;27;20208;-53
2024/02/10 00:47:48;;;;;;;24.00;14.73;;;;;;;2.26;100.00;98441.31;5112738;27;20251;-60
2024/02/10 00:50:18;;;;;;;24.00;14.50;;;;;;;2.27;100.00;98435.34;5115295;27;20239;-52
2024/02/10 00:52:49;;;;;;;22.50;14.63;;;;;;;2.25;100.00;98429.47;5113048;28;20246;-50
2024/02/10 00:55:27;;;;;;;25.53;14.87;;;;;;;2.24;100.00;98434.53;5118347;27;20287;-53
2024/02/10 00:57:55;;;;;;;25.17;14.93;;;;;;;2.22;100.00;98439.63;5108826;27;20206;-52
2024/02/10 01:00:23;;;;;;;26.83;16.03;;;;;;;2.20;100.00;98431.16;5113172;28;20699;-51
2024/02/10 01:02:54;;;;;;;24.23;13.80;;;;;;;2.17;100.00;98426.06;5113392;27;20196;-55
2024/02/10 01:05:21;;;;;;;22.73;14.00;;;;;;;2.13;100.00;98425.25;5116202;27;20203;-50
2024/02/10 01:07:51;;;;;;;21.93;13.90;;;;;;;2.10;100.00;98419.31;5113570;27;20232;-51
2024/02/10 01:10:19;;;;;;;25.43;14.13;;;;;;;2.06;100.00;98432.91;5112334;28;20674;-50
2024/02/10 01:12:48;;;;;;;28.13;15.10;;;;;;;2.02;100.00;98426.97;5111098;28;20604;-53
2024/02/10 01:15:16;;;;;;;27.67;14.33;;;;;;;2.02;100.00;98423.59;5112484;27;20230;-54
2024/02/10 01:17:46;;;;;;;20.13;13.30;;;;;;;1.99;100.00;98421.94;5112702;27;20246;-49
2024/02/10 01:20:17;;;;;;;23.93;14.43;;;;;;;1.98;100.00;98419.38;5113457;27;20260;-48
2024/02/10 01:22:46;;;;;;;23.90;13.67;;;;;;;1.96;100.00;98416.03;5113789;27;20710;-58
2024/02/10 01:25:15;;;;;;;25.07;15.03;;;;;;;1.93;100.00;98415.16;5104555;28;20558;-51
2024/02/10 01:27:46;;;;;;;24.20;14.33;;;;;;;1.91;100.00;98414.34;5115384;27;20227;-56
2024/02/10 01:30:17;;;;;;;25.27;14.97;;;;;;;1.90;100.00;98414.34;5110651;27;20254;-55
2024/02/10 01:32:45;;;;;;;22.87;14.97;;;;;;;1.92;100.00;98410.09;5102884;28;20239;-53
2024/02/10 01:35:15;;;;;;;24.90;14.23;;;;;;;1.96;100.00;98409.25;5110735;27;20281;-53
2024/02/10 01:37:43;;;;;;;28.90;16.07;;;;;;;1.94;100.00;98424.47;5119385;27;20196;-54
2024/02/10 01:40:12;;;;;;;26.50;15.97;;;;;;;1.97;100.00;98415.16;5118575;27;20200;-55
2024/02/10 01:42:42;;;;;;;27.07;15.30;;;;;;;2.03;100.00;98408.38;5107430;27;20203;-60
2024/02/10 01:45:12;;;;;;;26.60;16.47;;;;;;;2.03;100.00;98408.38;5112413;28;20211;-54
2024/02/10 01:47:41;;;;;;;25.50;15.73;;;;;;;1.99;100.00;98396.53;5122397;27;20310;-55
2024/02/10 01:50:10;;;;;;;25.67;14.87;;;;;;;1.96;100.00;98391.47;5116740;27;20214;-62
2024/02/10 01:52:40;;;;;;;28.57;15.53;;;;;;;1.97;100.00;98398.22;5107889;27;20203;-60
2024/02/10 01:55:10;;;;;;;24.63;15.17;;;;;;;1.97;100.00;98405.00;5107928;27;20200;-55
2024/02/10 01:57:39;;;;;;;28.57;14.90;;;;;;;1.96;100.00;98405.84;5124946;27;20202;-52
2024/02/10 02:00:13;;;;;;;27.13;15.93;;;;;;;1.94;100.00;98404.16;5112616;28;20208;-56
2024/02/10 02:02:42;;;;;;;28.20;15.50;;;;;;;1.93;100.00;98402.47;5106164;27;20205;-56
2024/02/10 02:05:10;;;;;;;30.40;17.57;;;;;;;1.96;100.00;98405.84;5116989;27;20685;-55
2024/02/10 02:07:38;;;;;;;31.23;18.80;;;;;;;1.99;100.00;98403.28;5111870;28;20219;-54
2024/02/10 02:10:08;;;;;;;31.90;19.07;;;;;;;2.01;100.00;98406.69;5105634;27;20248;-55
2024/02/10 02:12:48;;;;;;;40.10;20.20;;;;;;;2.06;100.00;98410.03;5109603;28;20275;-56
2024/02/10 02:15:18;;;;;;;38.50;22.20;;;;;;;2.09;100.00;98415.94;5112920;27;20234;-60
2024/02/10 02:17:47;;;;;;;39.17;22.77;;;;;;;2.11;100.00;98419.34;5125886;27;20607;-55
2024/02/10 02:20:15;;;;;;;38.77;23.27;;;;;;;2.12;100.00;98415.94;5113309;28;20208;-56
2024/02/10 02:22:49;;;;;;;39.23;22.87;;;;;;;2.13;100.00;98407.47;5115295;28;20195;-62
2024/02/10 02:25:17;;;;;;;38.50;22.33;;;;;;;2.15;100.00;98412.56;5109937;28;20199;-53
2024/02/10 02:27:46;;;;;;;34.80;20.27;;;;;;;2.18;100.00;98412.53;5106645;28;20682;-59
2024/02/10 02:30:15;;;;;;;36.13;21.13;;;;;;;2.21;100.00;98411.66;5112712;28;20196;-55
2024/02/10 02:32:42;;;;;;;34.73;19.63;;;;;;;2.22;100.00;98405.75;5110016;28;20200;-59
2024/02/10 02:35:11;;;;;;;34.20;20.33;;;;;;;2.23;100.00;98408.28;5117207;28;20192;-55
2024/02/10 02:37:41;;;;;;;29.70;18.50;;;;;;;2.24;100.00;98404.88;5112018;28;20203;-58
2024/02/10 02:40:12;;;;;;;29.47;18.20;;;;;;;2.24;100.00;98417.56;5110580;28;20669;-51
2024/02/10 02:42:40;;;;;;;34.10;18.63;;;;;;;2.25;100.00;98419.28;5118092;27;20222;-55
2024/02/10 02:45:10;;;;;;;29.93;17.33;;;;;;;2.23;100.00;98415.91;5113689;27;20196;-59
2024/02/10 02:47:39;;;;;;;30.50;16.83;;;;;;;2.21;100.00;98411.66;5118838;27;20211;-54
2024/02/10 02:50:09;;;;;;;33.20;17.97;;;;;;;2.20;100.00;98418.44;5122848;27;20561;-50
2024/02/10 02:52:37;;;;;;;30.67;18.07;;;;;;;2.23;100.00;98415.91;5112844;27;20199;-50
2024/02/10 02:55:08;;;;;;;32.30;17.20;;;;;;;2.24;100.00;98411.66;5114339;28;20195;-57
2024/02/10 02:57:39;;;;;;;33.83;19.10;;;;;;;2.27;100.00;98417.56;5116314;28;20200;-50
2024/02/10 03:00:08;;;;;;;35.00;18.33;;;;;;;2.30;100.00;98425.19;5114772;28;20199;-52
2024/02/10 03:02:40;;;;;;;37.40;19.00;;;;;;;2.33;100.00;98422.63;5121830;27;20207;-48
2024/02/10 03:05:11;;;;;;;32.30;17.63;;;;;;;2.34;100.00;98423.47;5118625;27;20207;-51
2024/02/10 03:07:45;;;;;;;35.47;18.37;;;;;;;2.36;100.00;98412.47;5110451;28;20216;-51
2024/02/10 03:10:16;;;;;;;34.03;19.57;;;;;;;2.39;100.00;98421.75;5111209;27;20564;-50
2024/02/10 03:12:48;;;;;;;35.70;19.10;;;;;;;2.40;100.00;98416.66;5114889;27;20203;-50
2024/02/10 03:15:17;;;;;;;33.97;18.53;;;;;;;2.39;100.00;98422.63;5114469;28;20204;-52
2024/02/10 03:17:46;;;;;;;38.67;21.00;;;;;;;2.39;100.00;98411.56;5114488;28;20253;-51
2024/02/10 03:20:21;;;;;;;38.87;20.17;;;;;;;2.39;100.00;98407.38;5122566;27;20809;-50
2024/02/10 03:22:58;;;;;;;37.80;20.13;;;;;;;2.39;100.00;98407.38;5108216;27;20196;-50
2024/02/10 03:25:27;;;;;;;37.07;19.23;;;;;;;2.41;100.00;98418.34;5107037;28;20245;-50
2024/02/10 03:27:57;;;;;;;37.53;20.27;;;;;;;2.45;100.00;98425.97;5117613;27;20246;-48
2024/02/10 03:30:25;;;;;;;41.03;21.67;;;;;;;2.49;100.00;98427.63;5112634;28;20203;-48
2024/02/10 03:32:54;;;;;;;41.33;21.77;;;;;;;2.50;100.00;98424.22;5117839;27;20210;-51
2024/02/10 03:35:25;;;;;;;43.33;21.43;;;;;;;2.53;100.00;98434.41;5118452;27;20208;-51
2024/02/10 03:37:53;;;;;;;39.80;21.10;;;;;;;2.55;100.00;98438.63;5118438;27;20260;-49
2024/02/10 03:40:22;;;;;;;37.70;20.40;;;;;;;2.57;100.00;98438.59;5110776;28;20674;-51
2024/02/10 03:42:50;;;;;;;38.40;20.33;;;;;;;2.60;100.00;98438.59;5107243;28;20204;-50
2024/02/10 03:45:20;;;;;;;42.90;20.80;;;;;;;2.61;100.00;98440.28;5106780;27;20200;-51
2024/02/10 03:47:50;;;;;;;37.53;21.33;;;;;;;2.58;100.00;98451.31;5117184;27;20212;-53
2024/02/10 03:50:19;;;;;;;40.87;21.33;;;;;;;2.56;100.00;98450.47;5120927;27;20669;-51
2024/02/10 03:52:48;;;;;;;37.73;21.23;;;;;;;2.58;100.00;98450.50;5123785;27;20208;-52
2024/02/10 03:55:17;;;;;;;39.50;20.53;;;;;;;2.56;100.00;98449.63;5116931;27;20702;-52
2024/02/10 03:57:45;;;;;;;35.37;20.93;;;;;;;2.56;100.00;98447.94;5114553;28;20204;-52
2024/02/10 04:00:20;;;;;;;33.53;20.83;;;;;;;2.57;100.00;98436.06;5108452;28;20227;-53
2024/02/10 04:02:49;;;;;;;42.90;21.87;;;;;;;2.57;100.00;98436.06;5114253;27;20206;-50
2024/02/10 04:05:17;;;;;;;36.53;19.33;;;;;;;2.57;100.00;98443.69;5114646;27;20549;-53
2024/02/10 04:07:49;;;;;;;35.53;19.17;;;;;;;2.56;100.00;98430.13;5113288;28;20204;-52
2024/02/10 04:10:18;;;;;;;34.70;18.97;;;;;;;2.57;100.00;98436.91;5114264;28;20188;-51
2024/02/10 04:12:47;;;;;;;37.97;20.50;;;;;;;2.57;100.00;98428.44;5111265;28;20197;-54
2024/02/10 04:15:15;;;;;;;37.97;20.57;;;;;;;2.57;100.00;98436.06;5114179;27;20607;-55
2024/02/10 04:17:48;;;;;;;35.50;20.17;;;;;;;2.58;100.00;98437.78;5122934;27;20270;-52
2024/02/10 04:20:19;;;;;;;37.03;20.67;;;;;;;2.59;100.00;98430.13;5126735;27;20203;-56
2024/02/10 04:22:48;;;;;;;32.67;18.80;;;;;;;2.61;100.00;98432.66;5117628;27;20208;-51
2024/02/10 04:25:16;;;;;;;36.07;19.13;;;;;;;2.63;100.00;98438.59;5122710;27;20216;-50
2024/02/10 04:27:44;;;;;;;35.63;20.60;;;;;;;2.62;100.00;98424.19;5120971;27;20213;-52
2024/02/10 04:30:13;;;;;;;40.73;22.27;;;;;;;2.64;100.00;98433.47;5124445;27;20650;-50
2024/02/10 04:32:46;;;;;;;37.63;21.27;;;;;;;2.62;100.00;98427.56;5112241;27;20203;-52
2024/02/10 04:35:15;;;;;;;34.43;20.63;;;;;;;2.65;100.00;98426.69;5111369;28;20283;-51
2024/02/10 04:37:51;;;;;;;39.80;22.03;;;;;;;2.69;100.00;98433.47;5119209;27;20212;-53
2024/02/10 04:40:23;;;;;;;37.17;20.40;;;;;;;2.66;100.00;98436.03;5116873;27;20202;-51
2024/02/10 04:42:53;;;;;;;39.63;22.57;;;;;;;2.64;100.00;98425.00;5119581;27;20599;-58
2024/02/10 04:45:26;;;;;;;35.67;20.60;;;;;;;2.68;100.00;98426.66;5115127;27;20198;-53
2024/02/10 04:47:54;;;;;;;37.07;21.13;;;;;;;2.67;100.00;98432.63;5113584;28;20654;-49
2024/02/10 04:50:23;;;;;;;37.97;21.83;;;;;;;2.70;100.00;98436.84;5108406;27;20579;-53
2024/02/10 04:52:52;;;;;;;36.83;20.73;;;;;;;2.71;100.00;98429.19;5120722;27;20211;-53
2024/02/10 04:55:20;;;;;;;34.93;20.47;;;;;;;2.73;100.00;98430.06;5113560;27;20256;-51
2024/02/10 04:57:48;;;;;;;34.20;20.20;;;;;;;2.74;100.00;98423.25;5122425;27;20228;-48
2024/02/10 05:00:18;;;;;;;37.40;20.83;;;;;;;2.75;100.00;98420.69;5126062;27;20242;-51
2024/02/10 05:02:50;;;;;;;37.60;20.47;;;;;;;2.76;100.00;98427.50;5104839;27;20283;-52
2024/02/10 05:05:20;;;;;;;31.97;19.63;;;;;;;2.74;100.00;98434.28;5112305;28;20230;-53
2024/02/10 05:07:49;;;;;;;36.97;20.57;;;;;;;2.78;100.00;98432.56;5112846;28;20212;-64
2024/02/10 05:10:19;;;;;;;34.23;20.57;;;;;;;2.82;100.00;98431.69;5112690;28;20223;-54
2024/02/10 05:12:48;;;;;;;32.47;20.03;;;;;;;2.80;100.00;98421.53;5110824;28;20625;-56
2024/02/10 05:15:18;;;;;;;36.10;19.63;;;;;;;2.80;100.00;98419.00;5112641;28;20208;-55
2024/02/10 05:17:49;;;;;;;35.10;20.40;;;;;;;2.80;100.00;98420.66;5112665;28;20258;-59
2024/02/10 05:20:19;;;;;;;33.17;19.33;;;;;;;2.81;100.00;98419.81;5110785;27;20192;-53
2024/02/10 05:22:48;;;;;;;34.57;20.50;;;;;;;2.81;100.00;98420.66;5110280;27;20220;-54
2024/02/10 05:25:19;;;;;;;34.50;20.63;;;;;;;2.81;100.00;98420.66;5124252;27;20237;-59
2024/02/10 05:27:48;;;;;;;34.23;19.30;;;;;;;2.82;100.00;98416.41;5124016;27;20208;-54
2024/02/10 05:30:20;;;;;;;36.37;19.87;;;;;;;2.82;100.00;98414.72;5106245;27;20212;-56
2024/02/10 05:32:50;;;;;;;38.23;20.63;;;;;;;2.84;100.00;98420.66;5112656;27;20207;-58
2024/02/10 05:35:20;;;;;;;37.93;20.93;;;;;;;2.86;100.00;98413.00;5118061;27;20611;-57
2024/02/10 05:37:53;;;;;;;37.37;19.90;;;;;;;2.88;100.00;98421.47;5124914;27;20200;-54
2024/02/10 05:40:23;;;;;;;35.47;21.13;;;;;;;2.92;100.00;98420.59;5115735;27;20223;-56
2024/02/10 05:42:52;;;;;;;34.87;21.17;;;;;;;2.95;100.00;98419.75;5116401;27;20203;-56
2024/02/10 05:45:21;;;;;;;37.83;21.57;;;;;;;2.96;100.00;98419.72;5111083;27;20561;-55
2024/02/10 05:47:50;;;;;;;39.57;22.03;;;;;;;2.97;100.00;98420.56;5121300;27;20625;-52
2024/02/10 05:50:22;;;;;;;34.87;21.50;;;;;;;2.97;100.00;98415.47;5115888;27;20212;-53
2024/02/10 05:52:52;;;;;;;34.60;19.63;;;;;;;2.94;100.00;98410.41;5124975;27;20818;-54
2024/02/10 05:55:25;;;;;;;38.00;21.47;;;;;;;2.89;100.00;98408.72;5115228;27;20715;-54
2024/02/10 05:57:55;;;;;;;36.40;19.93;;;;;;;2.85;100.00;98414.69;5109990;27;20227;-62
2024/02/10 06:00:24;;;;;;;34.07;19.03;;;;;;;2.84;100.00;98415.56;5108139;28;20200;-51
2024/02/10 06:02:53;;;;;;;35.10;20.30;;;;;;;2.85;100.00;98409.63;5115911;27;20276;-52
2024/02/10 06:05:22;;;;;;;37.80;20.87;;;;;;;2.81;100.00;98410.50;5113547;27;20210;-57
2024/02/10 06:07:56;;;;;;;38.93;21.30;;;;;;;2.78;100.00;98412.22;5111959;28;20196;-54
2024/02/10 06:10:26;;;;;;;39.93;20.80;;;;;;;2.73;100.00;98409.72;5111689;28;20212;-57
2024/02/10 06:12:54;;;;;;;35.30;18.80;;;;;;;2.71;100.00;98411.41;5111757;28;20208;-54
2024/02/10 06:15:23;;;;;;;35.97;20.40;;;;;;;2.68;100.00;98408.88;5112225;28;20643;-54
2024/02/10 06:17:55;;;;;;;33.53;19.33;;;;;;;2.66;100.00;98400.44;5106286;28;21001;-54
2024/02/10 06:20:23;;;;;;;39.03;20.90;;;;;;;2.64;100.00;98407.22;5108678;28;20204;-51
2024/02/10 06:22:53;;;;;;;40.07;20.63;;;;;;;2.61;100.00;98404.69;5113844;28;20208;-51
2024/02/10 06:25:24;;;;;;;39.67;22.77;;;;;;;2.57;100.00;98406.41;5109252;28;20237;-52
2024/02/10 06:27:56;;;;;;;39.93;22.03;;;;;;;2.56;100.00;98403.88;5113203;27;20204;-51
2024/02/10 06:30:27;;;;;;;42.80;22.30;;;;;;;2.55;100.00;98397.09;5116792;28;20259;-53
2024/02/10 06:32:56;;;;;;;43.60;22.43;;;;;;;2.56;100.00;98403.88;5112429;28;20200;-53
2024/02/10 06:35:24;;;;;;;37.83;21.60;;;;;;;2.56;100.00;98407.25;5110902;28;20613;-58
2024/02/10 06:37:54;;;;;;;50.33;21.70;;;;;;;2.58;100.00;98399.63;5111964;28;20237;-50
2024/02/10 06:40:23;;;;;;;40.50;22.20;;;;;;;2.61;100.00;98408.09;5104949;28;20208;-50
2024/02/10 06:42:52;;;;;;;41.33;22.63;;;;;;;2.65;100.00;98408.88;5116657;28;20199;-52
2024/02/10 06:45:24;;;;;;;42.70;22.70;;;;;;;2.67;100.00;98407.19;5115083;28;20195;-53
2024/02/10 06:47:53;;;;;;;44.90;22.93;;;;;;;2.66;100.00;98410.59;5110204;28;20291;-51
2024/02/10 06:50:23;;;;;;;43.50;22.47;;;;;;;2.67;100.00;98419.91;5110355;28;20208;-55
2024/02/10 06:52:53;;;;;;;46.77;22.60;;;;;;;2.69;100.00;98423.28;5106376;28;20196;-54
2024/02/10 06:55:23;;;;;;;43.07;22.67;;;;;;;2.73;100.00;98421.59;5114864;28;20257;-57
2024/02/10 06:57:52;;;;;;;40.90;21.83;;;;;;;2.80;100.00;98419.00;5115939;28;20204;-51
2024/02/10 07:00:23;;;;;;;40.07;21.40;;;;;;;2.88;100.00;98426.56;5121249;28;20192;-50
2024/02/10 07:02:53;;;;;;;44.57;23.80;;;;;;;2.93;100.00;98437.53;5111350;28;20654;-52
2024/02/10 07:05:23;;;;;;;39.97;22.13;;;;;;;2.97;100.00;98430.72;5113389;28;20669;-53
2024/02/10 07:07:52;;;;;;;39.67;20.63;;;;;;;3.03;100.00;98433.25;5112361;28;20196;-51
2024/02/10 07:10:21;;;;;;;42.50;22.70;;;;;;;3.04;100.00;98427.28;5112319;28;20219;-53
2024/02/10 07:12:52;;;;;;;38.17;21.53;;;;;;;3.04;100.00;98438.31;5117678;28;20230;-52
2024/02/10 07:15:29;;;;;;;42.30;20.80;;;;;;;3.07;100.00;98438.28;5125392;28;20230;-53
2024/02/10 07:18:02;;;;;;;38.30;20.00;;;;;;;3.08;100.00;98434.88;5111662;28;20236;-54
2024/02/10 07:20:32;;;;;;;36.80;20.63;;;;;;;3.10;100.00;98429.81;5114860;28;20212;-57
2024/02/10 07:23:03;;;;;;;42.80;20.50;;;;;;;3.12;100.00;98435.69;5110762;28;20651;-55
2024/02/10 07:25:32;;;;;;;41.00;22.47;;;;;;;3.12;100.00;98438.25;5123194;28;20207;-52
2024/02/10 07:28:01;;;;;;;41.13;22.07;;;;;;;3.13;100.00;98438.25;5109266;28;20192;-55
2024/02/10 07:30:32;;;;;;;36.87;20.37;;;;;;;3.18;100.00;98445.00;5121887;27;20254;-55
2024/02/10 07:33:08;;;;;;;40.80;21.33;;;;;;;3.26;100.00;98454.25;5110519;28;20200;-54
2024/02/10 07:35:39;;;;;;;38.23;21.33;;;;;;;3.30;100.00;98443.19;5121700;27;20655;-53
2024/02/10 07:38:09;;;;;;;39.57;22.87;;;;;;;3.32;100.00;98448.28;5124123;27;20209;-53
2024/02/10 07:40:38;;;;;;;36.63;20.43;;;;;;;3.34;100.00;98446.56;5108010;28;20207;-55
2024/02/10 07:43:12;;;;;;;38.00;22.00;;;;;;;3.36;100.00;98450.78;5115454;27;20204;-55
2024/02/10 07:45:42;;;;;;;38.93;21.60;;;;;;;3.36;100.00;98447.41;5109543;27;20628;-56
2024/02/10 07:48:10;;;;;;;37.33;20.97;;;;;;;3.35;100.00;98444.03;5114444;28;20219;-55
2024/02/10 07:50:41;;;;;;;41.83;22.13;;;;;;;3.32;100.00;98449.13;5120664;27;20261;-53
2024/02/10 07:53:14;;;;;;;40.07;21.00;;;;;;;3.36;100.00;98453.34;5111793;28;20192;-55
2024/02/10 07:55:46;;;;;;;38.67;22.57;;;;;;;3.42;100.00;98449.88;5108814;28;20208;-56
2024/02/10 07:58:15;;;;;;;40.93;21.43;;;;;;;3.46;100.00;98459.22;5122690;27;20650;-61
2024/02/10 08:00:49;;;;;;;39.87;21.03;;;;;;;3.48;100.00;98459.19;5112897;27;20200;-55
2024/02/10 08:03:19;;;;;;;37.93;21.77;;;;;;;3.51;100.00;98454.91;5107715;28;20211;-57
2024/02/10 08:05:51;;;;;;;43.63;21.63;;;;;;;3.55;100.00;98456.56;5110330;28;20295;-56
2024/02/10 08:08:23;;;;;;;42.33;22.33;;;;;;;3.61;100.00;98465.88;5118803;27;20204;-52
2024/02/10 08:10:52;;;;;;;41.63;22.33;;;;;;;3.61;100.00;98461.59;5108490;27;20662;-57
2024/02/10 08:13:24;;;;;;;43.87;20.90;;;;;;;3.65;100.00;98466.69;5113562;27;20203;-57
2024/02/10 08:15:55;;;;;;;44.67;23.00;;;;;;;3.63;100.00;98464.97;5113728;28;20218;-57
2024/02/10 08:18:26;;;;;;;45.90;22.80;;;;;;;3.65;100.00;98464.97;5123803;27;20233;-56
2024/02/10 08:20:54;;;;;;;40.50;22.00;;;;;;;3.71;100.00;98464.91;5128752;27;20630;-56
2024/02/10 08:23:23;;;;;;;42.40;22.47;;;;;;;3.72;99.72;98453.88;5111962;27;20208;-55
2024/02/10 08:25:52;;;;;;;44.50;24.10;;;;;;;3.71;98.65;98452.16;5117849;27;20195;-56
2024/02/10 08:28:20;;;;;;;43.83;22.73;;;;;;;3.69;98.81;98447.97;5115979;27;20199;-57
2024/02/10 08:30:49;;;;;;;43.77;23.70;;;;;;;3.71;100.00;98448.78;5123683;27;20677;-61
2024/02/10 08:33:20;;;;;;;43.23;22.10;;;;;;;3.75;99.46;98452.97;5117364;27;20257;-52
2024/02/10 08:35:48;;;;;;;45.93;23.03;;;;;;;3.79;100.00;98458.06;5115253;27;20199;-54
2024/02/10 08:38:16;;;;;;;43.77;22.53;;;;;;;3.82;100.00;98442.72;5123563;27;20890;-59
2024/02/10 08:40:44;;;;;;;40.13;21.93;;;;;;;3.90;100.00;98446.88;5109915;27;20639;-53
2024/02/10 08:43:13;;;;;;;41.70;23.30;;;;;;;3.91;99.70;98439.25;5109683;28;20196;-55
2024/02/10 08:45:44;;;;;;;42.20;22.43;;;;;;;3.88;99.73;98435.00;5112008;27;20286;-57
2024/02/10 08:48:12;;;;;;;44.27;22.53;;;;;;;3.88;99.80;98444.38;5118211;27;20192;-52
2024/02/10 08:50:42;;;;;;;46.23;23.07;;;;;;;3.87;98.95;98435.88;5113356;28;20289;-54
2024/02/10 08:53:14;;;;;;;48.47;24.93;;;;;;;3.92;98.59;98445.19;5124146;27;20238;-54
2024/02/10 08:55:42;;;;;;;41.77;22.80;;;;;;;3.95;100.00;98445.16;5109970;27;20291;-53
2024/02/10 08:58:10;;;;;;;42.10;23.37;;;;;;;3.97;100.00;98433.22;5105291;28;20211;-57
2024/02/10 09:00:39;;;;;;;44.93;23.67;;;;;;;4.03;100.00;98436.53;5110428;28;20570;-57
2024/02/10 09:03:09;;;;;;;46.73;24.30;;;;;;;4.10;99.82;98435.63;5115159;27;20643;-54
2024/02/10 09:05:38;;;;;;;50.77;25.10;;;;;;;4.16;99.02;98439.81;5106106;27;20208;-54
2024/02/10 09:08:07;;;;;;;45.53;23.33;;;;;;;4.16;97.60;98442.38;5105942;27;20232;-54
2024/02/10 09:10:35;;;;;;;44.57;23.47;;;;;;;4.19;99.05;98442.31;5112263;28;20273;-55
2024/02/10 09:13:04;;;;;;;45.17;24.40;;;;;;;4.20;97.67;98440.59;5114111;27;20196;-58
2024/02/10 09:15:33;;;;;;;44.60;23.83;;;;;;;4.21;98.01;98453.34;5113038;27;20200;-53
2024/02/10 09:18:01;;;;;;;46.07;24.73;;;;;;;4.23;98.66;98446.50;5110005;28;20321;-62
2024/02/10 09:20:31;;;;;;;47.43;24.63;;;;;;;4.26;97.62;98456.66;5109655;27;20200;-56
2024/02/10 09:22:59;;;;;;;46.77;24.43;;;;;;;4.29;98.01;98455.78;5111933;27;20722;-55
2024/02/10 09:25:29;;;;;;;48.63;24.43;;;;;;;4.30;98.06;98457.47;5117063;27;20767;-54
2024/02/10 09:27:59;;;;;;;45.83;23.97;;;;;;;4.33;98.05;98468.47;5112526;28;20294;-54
2024/02/10 09:30:27;;;;;;;53.63;26.43;;;;;;;4.37;98.97;98476.94;5109055;27;20735;-53
2024/02/10 09:32:55;;;;;;;49.73;24.23;;;;;;;4.42;99.08;98494.72;5109923;28;21008;-60
2024/02/10 09:35:24;;;;;;;44.57;24.13;;;;;;;4.46;97.50;98496.41;5111629;27;20203;-53
2024/02/10 09:38:00;;;;;;;48.07;24.87;;;;;;;4.51;98.28;98492.09;5114957;27;20196;-54
2024/02/10 09:40:30;;;;;;;42.67;23.63;;;;;;;4.58;97.51;98491.16;5113322;27;20261;-60
2024/02/10 09:43:02;;;;;;;44.90;24.80;;;;;;;4.57;97.78;98484.38;5117234;27;20684;-54
2024/02/10 09:45:33;;;;;;;46.43;23.87;;;;;;;4.63;98.25;98489.38;5108597;27;20200;-54
2024/02/10 09:48:04;;;;;;;46.43;24.53;;;;;;;4.69;98.02;98491.84;5113962;27;20569;-62
2024/02/10 09:50:32;;;;;;;44.63;23.63;;;;;;;4.73;97.67;98493.50;5110373;28;20230;-55
2024/02/10 09:53:05;;;;;;;45.43;25.50;;;;;;;4.73;97.21;98498.59;5108507;27;20223;-55
2024/02/10 09:55:35;;;;;;;48.07;24.33;;;;;;;4.75;96.73;98499.44;5119633;27;20631;-56
2024/02/10 09:58:06;;;;;;;52.60;26.77;;;;;;;4.75;96.39;98496.00;5112466;28;20245;-56
2024/02/10 10:00:36;;;;;;;48.63;26.00;;;;;;;4.75;96.96;98504.53;5115082;27;20256;-56
2024/02/10 10:03:05;;;;;;;45.17;24.73;;;;;;;4.75;97.20;98499.44;5115475;27;20244;-50
2024/02/10 10:05:42;;;;;;;46.70;25.07;;;;;;;4.77;96.50;98501.94;5106884;27;20207;-56
2024/02/10 10:08:11;;;;;;;49.40;25.47;;;;;;;4.81;96.87;98499.34;5115313;27;20199;-53
2024/02/10 10:10:41;;;;;;;51.40;25.37;;;;;;;4.83;96.73;98495.06;5119926;27;20662;-61
2024/02/10 10:13:09;;;;;;;48.73;25.67;;;;;;;4.86;96.40;98494.19;5116576;27;20215;-58
2024/02/10 10:15:39;;;;;;;47.23;27.30;;;;;;;4.93;97.78;98497.47;5105632;28;20249;-57
2024/02/10 10:18:19;;;;;;;51.10;25.70;;;;;;;4.99;96.79;98497.41;5105261;28;20312;-54
2024/02/10 10:20:48;;;;;;;45.60;24.67;;;;;;;5.06;97.27;98494.75;5109265;28;20204;-53
2024/02/10 10:23:17;;;;;;;50.50;25.40;;;;;;;5.14;97.44;98498.91;5113817;27;20200;-55
2024/02/10 10:25:47;;;;;;;50.43;25.77;;;;;;;5.17;96.15;98497.16;5112863;27;20207;-56
2024/02/10 10:28:17;;;;;;;52.07;27.07;;;;;;;5.17;95.70;98503.97;5123066;27;20686;-59
2024/02/10 10:30:47;;;;;;;50.30;26.80;;;;;;;5.15;95.92;98503.97;5108734;28;20316;-57
2024/02/10 10:33:20;;;;;;;54.07;27.20;;;;;;;5.21;96.66;98508.16;5121765;28;20774;-57
2024/02/10 10:35:50;;;;;;;51.70;27.77;;;;;;;5.25;96.02;98502.13;5099427;28;20196;-54
2024/02/10 10:38:21;;;;;;;52.53;27.57;;;;;;;5.27;96.34;98506.34;5110772;28;20192;-64
2024/02/10 10:40:52;;;;;;;54.30;28.47;;;;;;;5.31;95.85;98502.06;5112235;27;20212;-56
2024/02/10 10:43:22;;;;;;;50.57;25.97;;;;;;;5.33;95.28;98495.19;5109635;28;20207;-59
2024/02/10 10:45:50;;;;;;;49.37;26.73;;;;;;;5.39;95.58;98501.94;5105297;28;20204;-55
2024/02/10 10:48:18;;;;;;;49.67;27.60;;;;;;;5.41;95.10;98498.47;5110226;28;20207;-60
2024/02/10 10:50:49;;;;;;;45.80;25.77;;;;;;;5.42;94.93;98497.63;5113578;28;20219;-59
2024/02/10 10:53:18;;;;;;;45.80;26.17;;;;;;;5.44;95.37;98498.41;5107976;28;20223;-58
2024/02/10 10:55:51;;;;;;;51.03;27.10;;;;;;;5.49;95.78;98495.81;5117827;28;20574;-57
2024/02/10 10:58:24;;;;;;;53.27;28.53;;;;;;;5.51;94.99;98494.91;5104021;27;20203;-61
2024/02/10 11:00:54;;;;;;;51.00;26.83;;;;;;;5.49;94.77;98495.81;5108283;28;20208;-55
2024/02/10 11:03:22;;;;;;;53.90;27.73;;;;;;;5.45;95.23;98496.69;5112679;27;20253;-61
2024/02/10 11:05:50;;;;;;;50.77;27.67;;;;;;;5.43;96.01;98503.56;5115048;27;20670;-58
2024/02/10 11:08:25;;;;;;;52.00;27.23;;;;;;;5.42;96.05;98512.09;5108021;28;20203;-54
2024/02/10 11:10:59;;;;;;;50.50;27.57;;;;;;;5.43;96.27;98513.78;5108893;27;20676;-55
2024/02/10 11:13:30;;;;;;;59.13;29.37;;;;;;;5.41;96.51;98516.34;5107245;27;20223;-55
2024/02/10 11:16:04;;;;;;;57.20;29.13;;;;;;;5.41;97.12;98512.94;5108316;27;20206;-57
2024/02/10 11:18:34;;;;;;;59.87;29.80;;;;;;;5.42;97.10;98517.22;5109438;27;20231;-57
2024/02/10 11:21:18;;;;;;;54.77;28.43;;;;;;;5.44;97.66;98518.84;5109376;27;20574;-58
2024/02/10 11:24:06;;;;;;;53.87;29.03;;;;;;;5.43;97.33;98516.34;5102727;27;20204;-59
2024/02/10 11:26:39;;;;;;;58.50;29.90;;;;;;;5.41;98.44;98523.16;5103344;27;20224;-58
2024/02/10 11:29:10;;;;;;;56.40;28.80;;;;;;;5.40;98.07;98526.59;5112668;27;20204;-56
2024/02/10 11:31:40;;;;;;;61.50;28.70;;;;;;;5.36;98.50;98530.06;5106958;27;20214;-55